sensor_id;sensor_type;location;lat;lon;timestamp;pressure;altitude;pressure_sealevel;temperature;humidity
40205;BME280;26963;42.666;23.366;2023-01-10T00:01:07;94106.22;;;4.04;69.50
40205;BME280;26963;42.666;23.366;2023-01-10T00:03:32;94156.75;;;4.13;69.87
40205;BME280;26963;42.666;23.366;2023-01-10T00:05:58;94138.72;;;4.25;69.64
40205;BME280;26963;42.666;23.366;2023-01-10T00:08:23;94109.69;;;3.99;69.50
40205;BME280;26963;42.666;23.366;2023-01-10T00:10:49;94168.28;;;4.48;69.46
40205;BME280;26963;42.666;23.366;2023-01-10T00:13:15;94173.28;;;4.54;69.50
40205;BME280;26963;42.666;23.366;2023-01-10T00:15:52;94184.94;;;4.59;69.49
40205;BME280;26963;42.666;23.366;2023-01-10T00:18:18;94178.28;;;4.61;69.29
40205;BME280;26963;42.666;23.366;2023-01-10T00:20:46;94144.31;;;4.68;69.19
40205;BME280;26963;42.666;23.366;2023-01-10T00:23:12;94176.16;;;4.63;68.49
40205;BME280;26963;42.666;23.366;2023-01-10T00:25:38;94163.16;;;4.67;68.46
40205;BME280;26963;42.666;23.366;2023-01-10T00:28:04;94182.47;;;4.72;68.37
40205;BME280;26963;42.666;23.366;2023-01-10T00:30:40;94163.44;;;4.65;68.40
40205;BME280;26963;42.666;23.366;2023-01-10T00:33:06;94220.63;;;4.71;68.59
40205;BME280;26963;42.666;23.366;2023-01-10T00:35:32;94141.97;;;4.62;68.59
40205;BME280;26963;42.666;23.366;2023-01-10T00:37:58;94182.47;;;4.67;68.97
40205;BME280;26963;42.666;23.366;2023-01-10T00:40:33;94172.44;;;4.64;69.43
40205;BME280;26963;42.666;23.366;2023-01-10T00:42:59;94180.66;;;4.63;69.02
40205;BME280;26963;42.666;23.366;2023-01-10T00:45:44;94131.13;;;4.58;69.13
40205;BME280;26963;42.666;23.366;2023-01-10T00:48:12;94124.31;;;4.47;69.63
40205;BME280;26963;42.666;23.366;2023-01-10T00:50:37;94033.00;;;3.84;69.85
40205;BME280;26963;42.666;23.366;2023-01-10T00:53:03;94122.09;;;4.14;69.96
40205;BME280;26963;42.666;23.366;2023-01-10T00:55:29;94072.13;;;3.92;70.03
40205;BME280;26963;42.666;23.366;2023-01-10T00:57:55;94143.84;;;4.56;69.50
40205;BME280;26963;42.666;23.366;2023-01-10T01:00:20;94090.81;;;4.16;69.47
40205;BME280;26963;42.666;23.366;2023-01-10T01:02:46;94122.16;;;4.54;69.46
40205;BME280;26963;42.666;23.366;2023-01-10T01:05:12;94138.06;;;4.49;70.01
40205;BME280;26963;42.666;23.366;2023-01-10T01:07:38;94137.56;;;4.41;69.97
40205;BME280;26963;42.666;23.366;2023-01-10T01:10:04;94115.00;;;4.49;69.69
40205;BME280;26963;42.666;23.366;2023-01-10T01:12:48;94132.31;;;4.36;70.08
40205;BME280;26963;42.666;23.366;2023-01-10T01:15:13;94042.53;;;3.80;70.66
40205;BME280;26963;42.666;23.366;2023-01-10T01:17:39;94163.03;;;4.37;71.10
40205;BME280;26963;42.666;23.366;2023-01-10T01:20:05;94093.16;;;4.23;70.96
40205;BME280;26963;42.666;23.366;2023-01-10T01:22:30;94040.56;;;4.06;70.75
40205;BME280;26963;42.666;23.366;2023-01-10T01:24:56;94112.22;;;4.25;70.70
40205;BME280;26963;42.666;23.366;2023-01-10T01:27:22;94123.53;;;4.46;70.39
40205;BME280;26963;42.666;23.366;2023-01-10T01:29:47;94120.09;;;4.40;70.28
40205;BME280;26963;42.666;23.366;2023-01-10T01:32:13;94094.31;;;4.56;70.28
40205;BME280;26963;42.666;23.366;2023-01-10T01:34:38;94155.63;;;4.29;70.66
40205;BME280;26963;42.666;23.366;2023-01-10T01:37:04;94127.97;;;4.51;70.42
40205;BME280;26963;42.666;23.366;2023-01-10T01:39:29;94152.00;;;4.70;70.00
40205;BME280;26963;42.666;23.366;2023-01-10T01:41:55;94032.41;;;4.47;69.02
40205;BME280;26963;42.666;23.366;2023-01-10T01:44:30;94131.56;;;4.76;69.67
40205;BME280;26963;42.666;23.366;2023-01-10T01:47:10;94109.38;;;4.66;69.58
40205;BME280;26963;42.666;23.366;2023-01-10T01:49:42;94064.00;;;4.28;69.64
40205;BME280;26963;42.666;23.366;2023-01-10T01:52:20;94024.31;;;4.23;69.02
40205;BME280;26963;42.666;23.366;2023-01-10T01:54:47;94130.97;;;4.89;69.04
40205;BME280;26963;42.666;23.366;2023-01-10T01:57:16;94114.53;;;4.87;68.73
40205;BME280;26963;42.666;23.366;2023-01-10T01:59:47;94010.69;;;4.45;68.28
40205;BME280;26963;42.666;23.366;2023-01-10T02:02:27;94073.16;;;4.91;68.26
40205;BME280;26963;42.666;23.366;2023-01-10T02:04:55;94096.28;;;5.15;67.91
40205;BME280;26963;42.666;23.366;2023-01-10T02:07:23;94083.56;;;5.12;67.56
40205;BME280;26963;42.666;23.366;2023-01-10T02:10:00;94081.94;;;5.21;67.43
40205;BME280;26963;42.666;23.366;2023-01-10T02:12:29;94062.78;;;5.24;67.29
40205;BME280;26963;42.666;23.366;2023-01-10T02:14:57;94084.38;;;5.42;66.94
40205;BME280;26963;42.666;23.366;2023-01-10T02:17:23;93988.28;;;4.96;66.76
40205;BME280;26963;42.666;23.366;2023-01-10T02:22:38;94059.34;;;5.53;66.53
40205;BME280;26963;42.666;23.366;2023-01-10T02:39:07;94046.81;;;5.59;66.03
40205;BME280;26963;42.666;23.366;2023-01-10T02:41:44;94053.56;;;5.46;66.50
40205;BME280;26963;42.666;23.366;2023-01-10T02:44:25;94013.06;;;5.11;66.42
40205;BME280;26963;42.666;23.366;2023-01-10T02:46:54;93980.03;;;4.98;66.29
40205;BME280;26963;42.666;23.366;2023-01-10T02:49:20;94036.78;;;5.26;66.55
40205;BME280;26963;42.666;23.366;2023-01-10T02:51:46;93985.28;;;4.73;67.14
40205;BME280;26963;42.666;23.366;2023-01-10T02:54:18;94073.50;;;5.14;67.81
40205;BME280;26963;42.666;23.366;2023-01-10T03:07:42;94081.09;;;4.91;68.89
40205;BME280;26963;42.666;23.366;2023-01-10T03:10:17;94062.22;;;4.98;68.49
40205;BME280;26963;42.666;23.366;2023-01-10T03:12:55;94066.69;;;5.02;68.21
40205;BME280;26963;42.666;23.366;2023-01-10T03:15:27;94030.63;;;5.01;67.38
40205;BME280;26963;42.666;23.366;2023-01-10T03:17:56;94091.41;;;5.27;67.36
40205;BME280;26963;42.666;23.366;2023-01-10T03:20:23;94054.78;;;5.29;67.23
40205;BME280;26963;42.666;23.366;2023-01-10T03:22:50;94015.72;;;5.11;66.71
40205;BME280;26963;42.666;23.366;2023-01-10T03:25:20;94069.16;;;5.52;66.10
40205;BME280;26963;42.666;23.366;2023-01-10T03:27:54;94016.63;;;5.25;65.79
40205;BME280;26963;42.666;23.366;2023-01-10T03:30:29;94075.03;;;5.74;65.43
40205;BME280;26963;42.666;23.366;2023-01-10T03:32:56;94067.66;;;5.70;65.00
40205;BME280;26963;42.666;23.366;2023-01-10T03:35:49;94022.19;;;5.53;64.85
40205;BME280;26963;42.666;23.366;2023-01-10T03:38:34;94069.06;;;5.87;64.39
40205;BME280;26963;42.666;23.366;2023-01-10T03:41:13;94084.75;;;6.08;64.21
40205;BME280;26963;42.666;23.366;2023-01-10T03:43:46;94078.03;;;6.15;63.74
40205;BME280;26963;42.666;23.366;2023-01-10T03:46:52;94078.78;;;6.21;63.60
40205;BME280;26963;42.666;23.366;2023-01-10T03:49:21;93976.50;;;5.56;63.61
40205;BME280;26963;42.666;23.366;2023-01-10T03:51:48;94077.63;;;6.27;63.42
40205;BME280;26963;42.666;23.366;2023-01-10T03:54:15;94050.41;;;6.16;63.00
40205;BME280;26963;42.666;23.366;2023-01-10T03:56:49;94064.25;;;5.89;63.96
40205;BME280;26963;42.666;23.366;2023-01-10T03:59:16;94039.69;;;5.78;64.15
40205;BME280;26963;42.666;23.366;2023-01-10T04:01:43;93977.38;;;5.27;64.81
40205;BME280;26963;42.666;23.366;2023-01-10T04:04:08;94031.56;;;5.69;65.14
40205;BME280;26963;42.666;23.366;2023-01-10T04:06:35;93943.16;;;5.01;65.66
40205;BME280;26963;42.666;23.366;2023-01-10T04:09:01;93997.78;;;5.51;65.61
40205;BME280;26963;42.666;23.366;2023-01-10T04:11:27;93965.91;;;5.32;66.05
40205;BME280;26963;42.666;23.366;2023-01-10T04:13:55;93920.75;;;4.88;66.13
40205;BME280;26963;42.666;23.366;2023-01-10T04:16:21;93914.72;;;4.83;66.04
40205;BME280;26963;42.666;23.366;2023-01-10T04:18:46;93993.19;;;5.37;66.14
40205;BME280;26963;42.666;23.366;2023-01-10T04:21:12;94005.44;;;5.33;66.49
40205;BME280;26963;42.666;23.366;2023-01-10T04:23:37;93993.72;;;5.34;66.02
40205;BME280;26963;42.666;23.366;2023-01-10T04:26:03;94022.84;;;5.39;66.08
40205;BME280;26963;42.666;23.366;2023-01-10T04:28:28;94033.06;;;5.27;66.44
40205;BME280;26963;42.666;23.366;2023-01-10T04:30:54;94005.44;;;5.04;66.23
40205;BME280;26963;42.666;23.366;2023-01-10T04:33:19;93972.47;;;4.86;66.02
40205;BME280;26963;42.666;23.366;2023-01-10T04:35:49;94052.00;;;5.45;65.71
40205;BME280;26963;42.666;23.366;2023-01-10T04:38:15;94054.53;;;5.55;65.46
40205;BME280;26963;42.666;23.366;2023-01-10T04:40:51;94078.50;;;5.74;64.87
40205;BME280;26963;42.666;23.366;2023-01-10T04:43:17;94065.38;;;5.83;64.99
40205;BME280;26963;42.666;23.366;2023-01-10T04:45:43;94114.66;;;5.94;64.71
40205;BME280;26963;42.666;23.366;2023-01-10T04:48:08;94076.31;;;6.06;64.35
40205;BME280;26963;42.666;23.366;2023-01-10T04:50:34;94007.50;;;5.61;64.40
40205;BME280;26963;42.666;23.366;2023-01-10T04:52:59;94045.69;;;5.89;63.93
40205;BME280;26963;42.666;23.366;2023-01-10T04:55:25;94046.59;;;6.03;63.73
40205;BME280;26963;42.666;23.366;2023-01-10T04:57:50;94052.06;;;5.88;64.45
40205;BME280;26963;42.666;23.366;2023-01-10T05:00:16;94057.75;;;5.76;64.14
40205;BME280;26963;42.666;23.366;2023-01-10T05:02:44;94028.56;;;5.52;64.60
40205;BME280;26963;42.666;23.366;2023-01-10T05:05:13;94027.94;;;5.60;64.79
40205;BME280;26963;42.666;23.366;2023-01-10T05:07:39;94010.34;;;5.45;65.16
40205;BME280;26963;42.666;23.366;2023-01-10T05:10:07;94033.38;;;5.50;65.52
40205;BME280;26963;42.666;23.366;2023-01-10T05:12:33;94025.13;;;5.51;65.37
40205;BME280;26963;42.666;23.366;2023-01-10T05:14:59;94020.94;;;5.45;66.11
40205;BME280;26963;42.666;23.366;2023-01-10T05:17:25;93972.50;;;5.10;66.43
40205;BME280;26963;42.666;23.366;2023-01-10T05:19:50;94001.78;;;5.24;66.56
40205;BME280;26963;42.666;23.366;2023-01-10T05:22:16;94013.03;;;5.40;66.19
40205;BME280;26963;42.666;23.366;2023-01-10T05:24:41;94015.41;;;5.42;65.98
40205;BME280;26963;42.666;23.366;2023-01-10T05:27:07;94012.81;;;5.36;66.20
40205;BME280;26963;42.666;23.366;2023-01-10T05:29:32;94015.19;;;5.38;66.18
40205;BME280;26963;42.666;23.366;2023-01-10T05:31:58;94002.25;;;5.31;66.17
40205;BME280;26963;42.666;23.366;2023-01-10T05:34:24;94005.56;;;5.42;65.87
40205;BME280;26963;42.666;23.366;2023-01-10T05:36:49;94029.25;;;5.63;65.67
40205;BME280;26963;42.666;23.366;2023-01-10T05:39:15;94009.97;;;5.52;65.40
40205;BME280;26963;42.666;23.366;2023-01-10T05:41:43;94021.28;;;5.63;65.08
40205;BME280;26963;42.666;23.366;2023-01-10T05:44:09;94024.66;;;5.68;64.82
40205;BME280;26963;42.666;23.366;2023-01-10T05:46:35;94016.41;;;5.46;65.07
40205;BME280;26963;42.666;23.366;2023-01-10T05:49:00;94018.94;;;5.61;64.95
40205;BME280;26963;42.666;23.366;2023-01-10T05:51:26;94033.66;;;5.72;64.98
40205;BME280;26963;42.666;23.366;2023-01-10T05:53:51;94024.47;;;5.84;64.62
40205;BME280;26963;42.666;23.366;2023-01-10T05:56:17;93958.50;;;5.53;64.35
40205;BME280;26963;42.666;23.366;2023-01-10T05:58:43;94012.66;;;6.00;63.91
40205;BME280;26963;42.666;23.366;2023-01-10T06:01:09;94000.59;;;6.08;63.73
40205;BME280;26963;42.666;23.366;2023-01-10T06:03:36;94022.41;;;6.24;63.59
40205;BME280;26963;42.666;23.366;2023-01-10T06:06:01;94019.19;;;6.27;63.20
40205;BME280;26963;42.666;23.366;2023-01-10T06:08:28;94009.13;;;6.24;62.70
40205;BME280;26963;42.666;23.366;2023-01-10T06:10:54;93971.28;;;5.94;62.63
40205;BME280;26963;42.666;23.366;2023-01-10T06:13:20;94013.22;;;6.16;62.57
40205;BME280;26963;42.666;23.366;2023-01-10T06:15:46;94046.38;;;6.38;62.72
40205;BME280;26963;42.666;23.366;2023-01-10T06:18:12;94017.47;;;6.36;62.67
40205;BME280;26963;42.666;23.366;2023-01-10T06:20:38;94031.41;;;6.47;62.37
40205;BME280;26963;42.666;23.366;2023-01-10T06:23:04;94030.22;;;6.53;62.52
40205;BME280;26963;42.666;23.366;2023-01-10T06:25:34;93964.03;;;6.19;62.18
40205;BME280;26963;42.666;23.366;2023-01-10T06:28:01;94037.69;;;6.71;61.86
40205;BME280;26963;42.666;23.366;2023-01-10T06:30:27;94022.81;;;6.69;61.69
40205;BME280;26963;42.666;23.366;2023-01-10T06:32:52;93914.22;;;5.92;61.74
40205;BME280;26963;42.666;23.366;2023-01-10T06:35:18;93951.84;;;6.18;61.93
40205;BME280;26963;42.666;23.366;2023-01-10T06:37:44;94035.13;;;6.65;62.09
40205;BME280;26963;42.666;23.366;2023-01-10T06:40:10;94020.47;;;6.49;62.54
40205;BME280;26963;42.666;23.366;2023-01-10T06:42:35;93903.03;;;5.76;62.75
40205;BME280;26963;42.666;23.366;2023-01-10T06:45:01;94010.63;;;6.49;62.83
40205;BME280;26963;42.666;23.366;2023-01-10T06:47:27;93962.19;;;6.00;62.92
40205;BME280;26963;42.666;23.366;2023-01-10T06:49:53;94028.22;;;6.45;63.64
40205;BME280;26963;42.666;23.366;2023-01-10T06:52:18;94032.41;;;6.51;64.23
40205;BME280;26963;42.666;23.366;2023-01-10T06:54:44;94034.25;;;6.51;64.31
40205;BME280;26963;42.666;23.366;2023-01-10T06:57:09;94034.69;;;6.58;64.88
40205;BME280;26963;42.666;23.366;2023-01-10T06:59:35;94019.31;;;6.55;65.45
40205;BME280;26963;42.666;23.366;2023-01-10T07:02:00;93934.06;;;5.99;65.24
40205;BME280;26963;42.666;23.366;2023-01-10T07:04:26;94027.06;;;6.71;65.54
40205;BME280;26963;42.666;23.366;2023-01-10T07:06:54;94010.38;;;6.65;65.74
40205;BME280;26963;42.666;23.366;2023-01-10T07:09:20;94015.63;;;6.70;65.91
40205;BME280;26963;42.666;23.366;2023-01-10T07:11:45;94001.50;;;6.56;66.52
40205;BME280;26963;42.666;23.366;2023-01-10T07:14:14;93991.72;;;6.51;67.18
40205;BME280;26963;42.666;23.366;2023-01-10T07:16:39;94015.53;;;6.61;67.69
40205;BME280;26963;42.666;23.366;2023-01-10T07:19:05;93958.31;;;6.31;67.60
40205;BME280;26963;42.666;23.366;2023-01-10T07:21:30;93835.59;;;5.38;65.85
40205;BME280;26963;42.666;23.366;2023-01-10T07:23:56;93994.00;;;6.25;65.08
40205;BME280;26963;42.666;23.366;2023-01-10T07:26:22;94003.44;;;6.12;69.27
40205;BME280;26963;42.666;23.366;2023-01-10T07:28:49;94022.53;;;6.14;68.90
40205;BME280;26963;42.666;23.366;2023-01-10T07:31:17;94010.41;;;6.08;70.24
40205;BME280;26963;42.666;23.366;2023-01-10T07:33:43;93935.72;;;5.71;71.39
40205;BME280;26963;42.666;23.366;2023-01-10T07:36:09;93994.47;;;6.08;71.01
40205;BME280;26963;42.666;23.366;2023-01-10T07:38:34;93934.34;;;5.54;71.19
40205;BME280;26963;42.666;23.366;2023-01-10T07:41:01;93986.25;;;5.85;71.85
40205;BME280;26963;42.666;23.366;2023-01-10T07:43:28;94000.66;;;5.98;71.72
40205;BME280;26963;42.666;23.366;2023-01-10T07:45:57;94000.25;;;5.91;71.98
40205;BME280;26963;42.666;23.366;2023-01-10T07:48:23;93986.41;;;5.94;72.16
40205;BME280;26963;42.666;23.366;2023-01-10T07:50:48;93988.22;;;5.98;72.58
40205;BME280;26963;42.666;23.366;2023-01-10T07:53:14;93976.19;;;5.82;72.81
40205;BME280;26963;42.666;23.366;2023-01-10T07:55:39;93972.63;;;5.72;72.88
40205;BME280;26963;42.666;23.366;2023-01-10T07:58:06;94001.91;;;5.86;73.27
40205;BME280;26963;42.666;23.366;2023-01-10T08:00:33;93987.28;;;5.89;73.03
40205;BME280;26963;42.666;23.366;2023-01-10T08:02:58;93997.94;;;5.84;73.26
40205;BME280;26963;42.666;23.366;2023-01-10T08:05:24;93974.00;;;5.65;73.22
40205;BME280;26963;42.666;23.366;2023-01-10T08:07:49;93985.38;;;5.70;73.55
40205;BME280;26963;42.666;23.366;2023-01-10T08:10:15;93996.75;;;5.71;73.55
40205;BME280;26963;42.666;23.366;2023-01-10T08:12:41;93979.06;;;5.66;73.85
40205;BME280;26963;42.666;23.366;2023-01-10T08:15:10;93914.84;;;5.21;73.56
40205;BME280;26963;42.666;23.366;2023-01-10T08:17:35;93961.69;;;5.55;74.96
40205;BME280;26963;42.666;23.366;2023-01-10T08:20:01;93966.88;;;5.84;74.98
40205;BME280;26963;42.666;23.366;2023-01-10T08:22:27;93969.06;;;6.01;75.48
40205;BME280;26963;42.666;23.366;2023-01-10T08:24:52;93990.03;;;6.22;73.77
40205;BME280;26963;42.666;23.366;2023-01-10T08:27:18;93958.66;;;6.05;72.70
40205;BME280;26963;42.666;23.366;2023-01-10T08:29:43;93953.41;;;6.19;71.99
40205;BME280;26963;42.666;23.366;2023-01-10T08:32:09;93858.13;;;5.60;72.06
40205;BME280;26963;42.666;23.366;2023-01-10T08:34:35;93892.25;;;5.86;72.09
40205;BME280;26963;42.666;23.366;2023-01-10T08:37:01;93943.38;;;6.16;72.28
40205;BME280;26963;42.666;23.366;2023-01-10T08:39:28;93957.72;;;6.15;72.75
40205;BME280;26963;42.666;23.366;2023-01-10T08:41:55;93958.19;;;6.03;74.33
40205;BME280;26963;42.666;23.366;2023-01-10T08:44:20;93950.41;;;6.07;74.97
40205;BME280;26963;42.666;23.366;2023-01-10T08:46:46;93900.88;;;5.78;75.72
40205;BME280;26963;42.666;23.366;2023-01-10T08:49:12;93928.75;;;5.99;74.02
40205;BME280;26963;42.666;23.366;2023-01-10T08:51:38;93933.47;;;6.02;73.66
40205;BME280;26963;42.666;23.366;2023-01-10T08:54:04;93937.47;;;6.19;73.70
40205;BME280;26963;42.666;23.366;2023-01-10T08:56:30;93908.22;;;6.05;73.66
40205;BME280;26963;42.666;23.366;2023-01-10T08:58:55;93930.75;;;6.08;74.20
40205;BME280;26963;42.666;23.366;2023-01-10T09:01:21;93924.34;;;6.09;75.64
40205;BME280;26963;42.666;23.366;2023-01-10T09:03:46;93900.59;;;5.79;76.16
40205;BME280;26963;42.666;23.366;2023-01-10T09:06:12;93932.81;;;5.92;77.38
40205;BME280;26963;42.666;23.366;2023-01-10T09:08:38;93925.47;;;5.83;75.35
40205;BME280;26963;42.666;23.366;2023-01-10T09:13:49;93828.50;;;5.34;74.98
40205;BME280;26963;42.666;23.366;2023-01-10T09:16:15;93909.00;;;5.86;74.85
40205;BME280;26963;42.666;23.366;2023-01-10T09:18:44;93896.94;;;5.94;76.15
40205;BME280;26963;42.666;23.366;2023-01-10T09:21:09;93913.50;;;6.24;75.88
40205;BME280;26963;42.666;23.366;2023-01-10T09:23:35;93849.63;;;5.96;75.48
40205;BME280;26963;42.666;23.366;2023-01-10T09:26:00;93888.34;;;6.35;76.00
40205;BME280;26963;42.666;23.366;2023-01-10T09:28:27;93895.84;;;6.33;72.41
40205;BME280;26963;42.666;23.366;2023-01-10T09:30:52;93874.53;;;6.19;72.58
40205;BME280;26963;42.666;23.366;2023-01-10T09:33:18;93916.84;;;6.49;73.37
40205;BME280;26963;42.666;23.366;2023-01-10T09:35:44;93858.88;;;6.18;74.85
40205;BME280;26963;42.666;23.366;2023-01-10T09:38:13;93912.66;;;6.76;74.36
40205;BME280;26963;42.666;23.366;2023-01-10T09:43:53;93891.81;;;6.97;75.99
40205;BME280;26963;42.666;23.366;2023-01-10T09:49:38;93857.06;;;6.93;72.45
40205;BME280;26963;42.666;23.366;2023-01-10T09:52:19;93886.00;;;7.09;73.79
40205;BME280;26963;42.666;23.366;2023-01-10T09:54:47;93865.25;;;7.11;72.73
40205;BME280;26963;42.666;23.366;2023-01-10T09:57:19;93869.75;;;7.24;71.86
40205;BME280;26963;42.666;23.366;2023-01-10T09:59:46;93857.72;;;7.13;71.59
40205;BME280;26963;42.666;23.366;2023-01-10T10:07:38;93865.81;;;7.08;72.81
40205;BME280;26963;42.666;23.366;2023-01-10T10:10:05;93852.69;;;7.25;73.43
40205;BME280;26963;42.666;23.366;2023-01-10T10:12:43;93797.84;;;7.01;73.34
40205;BME280;26963;42.666;23.366;2023-01-10T10:26:00;93848.09;;;7.31;69.87
40205;BME280;26963;42.666;23.366;2023-01-10T10:36:55;93833.69;;;7.18;70.75
40205;BME280;26963;42.666;23.366;2023-01-10T10:39:36;93834.09;;;7.11;72.36
40205;BME280;26963;42.666;23.366;2023-01-10T10:42:08;93808.28;;;7.12;73.03
40205;BME280;26963;42.666;23.366;2023-01-10T10:45:03;93806.53;;;7.07;72.96
40205;BME280;26963;42.666;23.366;2023-01-10T10:47:30;93819.41;;;7.14;70.44
40205;BME280;26963;42.666;23.366;2023-01-10T10:50:10;93825.59;;;7.23;70.98
40205;BME280;26963;42.666;23.366;2023-01-10T10:52:41;93826.81;;;7.17;71.16
40205;BME280;26963;42.666;23.366;2023-01-10T10:55:21;93815.16;;;7.13;70.94
40205;BME280;26963;42.666;23.366;2023-01-10T10:57:55;93805.94;;;6.96;71.82
40205;BME280;26963;42.666;23.366;2023-01-10T11:00:21;93830.91;;;7.23;73.28
40205;BME280;26963;42.666;23.366;2023-01-10T11:02:55;93809.47;;;7.20;73.91
40205;BME280;26963;42.666;23.366;2023-01-10T11:05:33;93836.63;;;7.30;72.14
40205;BME280;26963;42.666;23.366;2023-01-10T11:08:03;93753.56;;;6.83;71.25
40205;BME280;26963;42.666;23.366;2023-01-10T11:10:39;93784.28;;;7.03;71.60
40205;BME280;26963;42.666;23.366;2023-01-10T11:15:50;93803.72;;;7.26;71.61
40205;BME280;26963;42.666;23.366;2023-01-10T11:18:19;93798.63;;;7.16;72.15
40205;BME280;26963;42.666;23.366;2023-01-10T11:21:05;93814.78;;;7.33;73.40
40205;BME280;26963;42.666;23.366;2023-01-10T11:26:07;93731.50;;;6.82;71.60
40205;BME280;26963;42.666;23.366;2023-01-10T11:28:34;93724.03;;;6.71;71.63
40205;BME280;26963;42.666;23.366;2023-01-10T11:31:01;93787.88;;;7.21;72.20
40205;BME280;26963;42.666;23.366;2023-01-10T11:33:33;93787.16;;;7.29;71.42
40205;BME280;26963;42.666;23.366;2023-01-10T11:36:07;93792.47;;;7.29;72.46
40205;BME280;26963;42.666;23.366;2023-01-10T11:38:33;93778.81;;;7.22;73.71
40205;BME280;26963;42.666;23.366;2023-01-10T11:43:45;93810.03;;;7.30;71.88
40205;BME280;26963;42.666;23.366;2023-01-10T11:46:21;93800.56;;;7.24;71.64
40205;BME280;26963;42.666;23.366;2023-01-10T11:49:02;93796.63;;;7.22;71.34
40205;BME280;26963;42.666;23.366;2023-01-10T11:51:35;93784.03;;;7.27;73.79
40205;BME280;26963;42.666;23.366;2023-01-10T11:54:04;93761.75;;;7.23;73.43
40205;BME280;26963;42.666;23.366;2023-01-10T11:56:33;93724.09;;;6.93;73.39
40205;BME280;26963;42.666;23.366;2023-01-10T11:59:07;93733.16;;;6.92;72.21
40205;BME280;26963;42.666;23.366;2023-01-10T12:01:40;93768.66;;;7.24;72.32
40205;BME280;26963;42.666;23.366;2023-01-10T12:04:14;93778.22;;;7.25;71.79
40205;BME280;26963;42.666;23.366;2023-01-10T12:06:46;93767.47;;;7.30;73.46
40205;BME280;26963;42.666;23.366;2023-01-10T12:14:45;93778.47;;;7.38;71.99
40205;BME280;26963;42.666;23.366;2023-01-10T12:19:44;93789.94;;;7.24;72.37
40205;BME280;26963;42.666;23.366;2023-01-10T12:22:11;93724.91;;;6.80;73.63
40205;BME280;26963;42.666;23.366;2023-01-10T12:24:40;93734.22;;;7.05;74.09
40205;BME280;26963;42.666;23.366;2023-01-10T12:27:11;93792.63;;;7.47;75.51
40205;BME280;26963;42.666;23.366;2023-01-10T12:29:48;93796.03;;;7.39;72.56
40205;BME280;26963;42.666;23.366;2023-01-10T12:32:29;93804.00;;;7.39;72.78
40205;BME280;26963;42.666;23.366;2023-01-10T12:35:00;93799.38;;;7.30;72.58
40205;BME280;26963;42.666;23.366;2023-01-10T12:37:36;93723.59;;;6.91;73.94
40205;BME280;26963;42.666;23.366;2023-01-10T12:40:24;93793.72;;;7.46;74.53
40205;BME280;26963;42.666;23.366;2023-01-10T12:42:59;93770.97;;;7.40;74.58
40205;BME280;26963;42.666;23.366;2023-01-10T12:45:58;93770.38;;;7.43;72.37
40205;BME280;26963;42.666;23.366;2023-01-10T12:48:30;93774.31;;;7.45;72.24
40205;BME280;26963;42.666;23.366;2023-01-10T12:51:06;93765.66;;;7.40;72.94
40205;BME280;26963;42.666;23.366;2023-01-10T12:53:38;93785.63;;;7.51;73.60
40205;BME280;26963;42.666;23.366;2023-01-10T12:56:14;93789.09;;;7.51;74.93
40205;BME280;26963;42.666;23.366;2023-01-10T12:58:51;93796.38;;;7.46;72.74
40205;BME280;26963;42.666;23.366;2023-01-10T13:01:28;93796.31;;;7.37;72.29
40205;BME280;26963;42.666;23.366;2023-01-10T13:03:58;93810.53;;;7.32;72.03
40205;BME280;26963;42.666;23.366;2023-01-10T13:06:31;93742.31;;;6.86;74.41
40205;BME280;26963;42.666;23.366;2023-01-10T13:08:58;93779.69;;;7.31;74.77
40205;BME280;26963;42.666;23.366;2023-01-10T13:11:29;93728.88;;;7.05;77.05
40205;BME280;26963;42.666;23.366;2023-01-10T13:14:00;93794.03;;;7.44;73.48
40205;BME280;26963;42.666;23.366;2023-01-10T13:16:47;93719.38;;;6.90;72.87
40205;BME280;26963;42.666;23.366;2023-01-10T13:21:44;93790.28;;;7.45;73.82
40205;BME280;26963;42.666;23.366;2023-01-10T13:24:25;93748.94;;;7.25;74.66
40205;BME280;26963;42.666;23.366;2023-01-10T13:27:00;93806.22;;;7.59;76.25
40205;BME280;26963;42.666;23.366;2023-01-10T13:29:37;93811.16;;;7.52;72.60
40205;BME280;26963;42.666;23.366;2023-01-10T13:32:19;93801.72;;;7.46;72.98
40205;BME280;26963;42.666;23.366;2023-01-10T13:34:46;93788.44;;;7.32;73.30
40205;BME280;26963;42.666;23.366;2023-01-10T13:39:44;93771.59;;;7.37;75.28
40205;BME280;26963;42.666;23.366;2023-01-10T14:00:41;93813.66;;;7.71;74.14
40205;BME280;26963;42.666;23.366;2023-01-10T14:06:20;93826.81;;;7.90;74.65
40205;BME280;26963;42.666;23.366;2023-01-10T14:09:01;93800.66;;;7.92;74.13
40205;BME280;26963;42.666;23.366;2023-01-10T14:11:34;93756.47;;;7.68;73.81
40205;BME280;26963;42.666;23.366;2023-01-10T14:16:51;93763.63;;;7.82;74.03
40205;BME280;26963;42.666;23.366;2023-01-10T14:19:31;93810.25;;;8.16;74.02
40205;BME280;26963;42.666;23.366;2023-01-10T14:21:59;93801.63;;;8.19;73.26
40205;BME280;26963;42.666;23.366;2023-01-10T14:24:29;93812.28;;;8.19;72.99
40205;BME280;26963;42.666;23.366;2023-01-10T14:27:00;93818.22;;;8.16;73.26
40205;BME280;26963;42.666;23.366;2023-01-10T14:29:29;93819.97;;;8.21;72.94
40205;BME280;26963;42.666;23.366;2023-01-10T14:31:57;93808.34;;;8.16;72.43
40205;BME280;26963;42.666;23.366;2023-01-10T14:34:33;93811.50;;;8.19;72.65
40205;BME280;26963;42.666;23.366;2023-01-10T14:37:28;93811.06;;;8.25;71.93
40205;BME280;26963;42.666;23.366;2023-01-10T14:39:57;93741.84;;;7.80;71.33
40205;BME280;26963;42.666;23.366;2023-01-10T14:42:25;93796.56;;;8.09;71.86
40205;BME280;26963;42.666;23.366;2023-01-10T14:45:12;93810.69;;;8.18;72.19
40205;BME280;26963;42.666;23.366;2023-01-10T14:47:41;93763.44;;;7.78;71.48
40205;BME280;26963;42.666;23.366;2023-01-10T14:50:30;93820.03;;;8.07;71.08
40205;BME280;26963;42.666;23.366;2023-01-10T14:52:57;93828.03;;;8.07;71.20
40205;BME280;26963;42.666;23.366;2023-01-10T14:55:24;93822.03;;;8.01;71.06
40205;BME280;26963;42.666;23.366;2023-01-10T14:58:00;93836.50;;;8.09;71.08